createdAt,value
2017-02-15T00:00:02.688Z,0.6
2017-02-15T00:05:03.222Z,0.6
2017-02-15T00:10:03.370Z,0.6
2017-02-15T00:15:03.259Z,0.6
2017-02-15T00:20:03.305Z,0.6
2017-02-15T00:25:03.100Z,0.4
2017-02-15T00:30:02.999Z,0.3
2017-02-15T00:35:18.135Z,0.3
2017-02-15T00:40:03.129Z,0.4
2017-02-15T00:45:02.747Z,0.4
2017-02-15T00:50:02.961Z,0.4
2017-02-15T00:55:03.085Z,0.4
2017-02-15T01:00:02.830Z,0.4
2017-02-15T01:05:02.964Z,0.4
2017-02-15T01:10:02.906Z,0.4
2017-02-15T01:15:02.993Z,0.3
2017-02-15T01:20:02.937Z,0.1
2017-02-15T01:25:02.655Z,0.0
2017-02-15T01:30:03.285Z,-0.3
2017-02-15T01:35:03.107Z,0.0
2017-02-15T01:40:03.295Z,0.0
2017-02-15T01:45:03.339Z,0.0
2017-02-15T01:50:03.331Z,0.0
2017-02-15T01:55:03.333Z,0.1
2017-02-15T02:00:03.337Z,0.1
2017-02-15T02:05:03.399Z,0.1
2017-02-15T02:10:02.461Z,0.4
2017-02-15T02:15:02.542Z,0.6
2017-02-15T02:20:02.443Z,0.4
2017-02-15T02:25:02.449Z,0.6
2017-02-15T02:30:02.421Z,0.6
2017-02-15T02:35:03.398Z,0.6
2017-02-15T02:40:03.276Z,0.4
2017-02-15T02:45:03.187Z,0.6
2017-02-15T02:50:02.952Z,0.7
2017-02-15T02:55:02.914Z,0.6
2017-02-15T03:00:03.020Z,0.4
2017-02-15T03:05:03.466Z,0.3
2017-02-15T03:10:03.334Z,0.4
2017-02-15T03:15:03.368Z,0.1
2017-02-15T03:20:03.269Z,0.3
2017-02-15T03:25:03.229Z,0.3
2017-02-15T03:30:03.333Z,0.3
2017-02-15T03:35:03.085Z,0.3
2017-02-15T03:40:02.990Z,0.3
2017-02-15T03:45:02.743Z,0.3
2017-02-15T03:50:02.406Z,0.3
2017-02-15T03:55:03.389Z,0.4
2017-02-15T04:00:03.271Z,0.1
2017-02-15T04:05:03.124Z,0.1
2017-02-15T04:10:03.103Z,0.1
2017-02-15T04:15:03.021Z,0.1
2017-02-15T04:20:02.790Z,0.1
2017-02-15T04:25:02.614Z,0.3
2017-02-15T04:30:02.686Z,0.4
2017-02-15T04:35:02.593Z,0.3
2017-02-15T04:40:03.343Z,0.3
2017-02-15T04:45:03.356Z,0.3
2017-02-15T04:50:02.529Z,0.1
2017-02-15T04:55:03.797Z,0.1
2017-02-15T05:00:02.720Z,0.0
2017-02-15T05:05:02.467Z,0.0
2017-02-15T05:10:02.432Z,0.0
2017-02-15T05:15:03.359Z,0.1
2017-02-15T05:20:03.377Z,0.1
2017-02-15T05:25:03.469Z,0.3
2017-02-15T05:30:03.179Z,0.3
2017-02-15T05:35:02.909Z,0.1
2017-02-15T05:40:02.817Z,0.1
2017-02-15T05:45:03.192Z,0.1
2017-02-15T05:50:03.357Z,-0.5
2017-02-15T05:55:02.442Z,-0.3
2017-02-15T06:00:03.521Z,-0.5
2017-02-15T06:05:02.525Z,-0.5
2017-02-15T06:10:02.443Z,-0.5
2017-02-15T06:15:03.155Z,-0.5
2017-02-15T06:20:03.225Z,-0.5
2017-02-15T06:25:03.033Z,-0.6
2017-02-15T06:30:02.958Z,-0.6
2017-02-15T06:35:03.012Z,-0.6
2017-02-15T06:40:02.977Z,-0.8
2017-02-15T06:45:02.700Z,-0.6
2017-02-15T06:50:02.811Z,-0.5
2017-02-15T06:55:02.696Z,-0.6
2017-02-15T07:00:02.934Z,0.0
2017-02-15T07:05:02.835Z,0.0
2017-02-15T07:10:02.838Z,0.1
2017-02-15T07:15:02.771Z,0.3
2017-02-15T07:20:03.002Z,0.3
2017-02-15T07:25:03.385Z,0.4
2017-02-15T07:30:02.467Z,0.4
2017-02-15T07:35:03.403Z,0.7
2017-02-15T07:40:03.332Z,0.8
2017-02-15T07:45:03.085Z,0.7
2017-02-15T07:50:03.079Z,0.6
2017-02-15T07:55:02.900Z,1.1
2017-02-15T08:00:02.800Z,1.2
2017-02-15T08:05:02.952Z,1.3
2017-02-15T08:10:03.118Z,1.6
2017-02-15T08:15:03.041Z,1.8
2017-02-15T08:20:02.778Z,2.2
2017-02-15T08:25:02.676Z,2.5
2017-02-15T08:30:02.550Z,3.0
2017-02-15T08:35:02.443Z,3.2
2017-02-15T08:40:02.570Z,3.5
2017-02-15T08:45:02.564Z,4.3
2017-02-15T08:50:03.315Z,4.0
2017-02-15T08:55:03.158Z,4.5
2017-02-15T09:00:03.012Z,5.0
2017-02-15T09:05:03.100Z,5.0
2017-02-15T09:10:03.035Z,5.5
2017-02-15T09:15:02.942Z,5.9
2017-02-15T09:20:02.832Z,6.1
2017-02-15T09:25:02.743Z,6.6
2017-02-15T09:30:02.750Z,6.6
2017-02-15T09:35:02.759Z,7.1
2017-02-15T09:40:02.712Z,7.1
2017-02-15T09:45:02.825Z,7.4
2017-02-15T09:50:02.744Z,7.5
2017-02-15T09:55:02.853Z,8.3
2017-02-15T10:00:02.908Z,8.6
2017-02-15T10:05:02.737Z,9.0
2017-02-15T10:10:02.632Z,8.5
2017-02-15T10:15:03.397Z,8.5
2017-02-15T10:20:03.370Z,9.1
2017-02-15T10:25:02.546Z,10.0
2017-02-15T10:30:02.522Z,10.0
2017-02-15T10:35:03.396Z,9.8
2017-02-15T10:40:03.379Z,10.3
2017-02-15T10:45:03.383Z,10.3
2017-02-15T10:50:03.335Z,10.8
2017-02-15T10:55:03.316Z,10.8
2017-02-15T11:00:03.240Z,11.1
2017-02-15T11:05:03.206Z,11.3
2017-02-15T11:10:03.416Z,11.3
2017-02-15T11:15:02.762Z,11.8
2017-02-15T11:20:03.004Z,12.0
2017-02-15T11:25:03.344Z,12.8
2017-02-15T11:30:02.900Z,12.5
2017-02-15T11:35:02.737Z,13.5
2017-02-15T11:40:02.827Z,12.5
2017-02-15T11:45:02.511Z,12.8
2017-02-15T11:50:02.855Z,13.3
2017-02-15T11:55:02.486Z,12.8
2017-02-15T12:00:02.946Z,13.1
2017-02-15T12:05:03.034Z,12.8
2017-02-15T12:10:02.977Z,13.1
2017-02-15T12:15:02.951Z,13.3
2017-02-15T12:20:02.565Z,13.5
2017-02-15T12:25:03.397Z,13.3
2017-02-15T12:30:03.339Z,13.6
2017-02-15T12:35:02.929Z,13.6
2017-02-15T12:40:02.556Z,14.3
2017-02-15T12:45:03.387Z,14.3
2017-02-15T12:50:02.972Z,14.6
2017-02-15T12:55:02.753Z,14.8
2017-02-15T13:00:02.489Z,14.3
2017-02-15T13:05:03.132Z,14.6
2017-02-15T13:10:02.918Z,14.5
2017-02-15T13:15:02.555Z,15.1
2017-02-15T13:20:03.080Z,15.1
2017-02-15T13:25:02.688Z,15.1
2017-02-15T13:30:02.532Z,15.1
2017-02-15T13:35:03.562Z,15.5
2017-02-15T13:40:03.245Z,15.5
2017-02-15T13:45:02.976Z,15.3
2017-02-15T13:50:02.960Z,15.1
2017-02-15T13:55:02.748Z,15.3
2017-02-15T14:00:02.498Z,15.6
2017-02-15T14:05:03.392Z,15.5
2017-02-15T14:10:02.443Z,15.1
2017-02-15T14:15:03.060Z,15.1
2017-02-15T14:20:02.786Z,15.3
2017-02-15T14:25:02.532Z,14.8
2017-02-15T14:30:03.129Z,15.1
2017-02-15T14:35:02.704Z,15.1
2017-02-15T14:40:02.429Z,15.3
2017-02-15T14:45:02.981Z,15.3
2017-02-15T14:50:02.951Z,15.3
2017-02-15T14:55:02.951Z,15.3
2017-02-15T15:00:03.081Z,15.3
2017-02-15T15:05:03.247Z,15.1
2017-02-15T15:10:03.237Z,14.1
2017-02-15T15:15:03.211Z,14.0
2017-02-15T15:20:03.308Z,15.1
2017-02-15T15:25:03.225Z,15.1
2017-02-15T15:30:02.839Z,14.8
2017-02-15T15:35:04.895Z,14.0
2017-02-15T15:40:02.849Z,13.8
2017-02-15T15:45:02.522Z,13.6
2017-02-15T15:50:03.190Z,13.8
2017-02-15T15:55:02.904Z,13.6
2017-02-15T16:00:02.905Z,13.5
2017-02-15T16:05:03.298Z,13.1
2017-02-15T16:10:03.026Z,13.3
2017-02-15T16:15:02.717Z,13.3
2017-02-15T16:20:02.500Z,13.1
2017-02-15T16:25:03.574Z,13.1
2017-02-15T16:30:03.398Z,13.1
2017-02-15T16:35:02.922Z,12.8
2017-02-15T16:40:03.125Z,12.8
2017-02-15T16:45:02.869Z,12.5
2017-02-15T16:50:03.093Z,12.3
2017-02-15T16:55:02.792Z,12.1
2017-02-15T17:00:02.814Z,12.0
2017-02-15T17:05:03.176Z,11.6
2017-02-15T17:10:02.714Z,11.6
2017-02-15T17:15:02.873Z,11.6
2017-02-15T17:20:03.200Z,11.6
2017-02-15T17:25:03.293Z,11.6
2017-02-15T17:30:02.841Z,11.3
2017-02-15T17:35:02.970Z,11.3
2017-02-15T17:40:02.690Z,11.3
2017-02-15T17:45:02.657Z,10.8
2017-02-15T17:50:03.317Z,11.1
2017-02-15T17:55:03.205Z,10.8
2017-02-15T18:00:02.849Z,10.6
2017-02-15T18:05:03.205Z,10.5
2017-02-15T18:10:02.689Z,10.3
2017-02-15T18:15:02.818Z,10.1
2017-02-15T18:20:03.271Z,10.1
2017-02-15T18:25:03.205Z,9.8
2017-02-15T18:30:02.605Z,10.0
2017-02-15T18:35:02.853Z,10.1
2017-02-15T18:40:02.539Z,10.5
2017-02-15T18:45:03.487Z,10.8
2017-02-15T18:50:02.390Z,10.8
2017-02-15T18:55:03.412Z,10.8
2017-02-15T19:00:03.340Z,10.8
2017-02-15T19:05:03.001Z,10.8
2017-02-15T19:10:03.289Z,10.8
2017-02-15T19:15:03.091Z,10.8
2017-02-15T19:20:02.527Z,10.8
2017-02-15T19:25:03.297Z,10.8
2017-02-15T19:30:03.274Z,10.6
2017-02-15T19:35:03.365Z,10.5
2017-02-15T19:40:02.917Z,10.5
2017-02-15T19:45:03.377Z,10.5
2017-02-15T19:50:03.354Z,10.5
2017-02-15T19:55:03.377Z,10.3
2017-02-15T20:00:03.326Z,10.5
2017-02-15T20:05:03.319Z,10.3
2017-02-15T20:10:02.887Z,10.3
2017-02-15T20:15:03.058Z,10.0
2017-02-15T20:20:02.648Z,10.0
2017-02-15T20:25:02.931Z,10.1
2017-02-15T20:30:03.170Z,10.1
2017-02-15T20:35:02.822Z,10.0
2017-02-15T20:40:02.491Z,10.0
2017-02-15T20:45:02.685Z,9.8
2017-02-15T20:50:02.655Z,9.5
2017-02-15T20:55:03.058Z,9.3
2017-02-15T21:00:02.752Z,9.6
2017-02-15T21:05:03.063Z,9.6
2017-02-15T21:10:02.441Z,9.3
2017-02-15T21:15:03.358Z,9.1
2017-02-15T21:20:02.575Z,9.0
2017-02-15T21:25:02.517Z,9.1
2017-02-15T21:30:02.776Z,9.0
2017-02-15T21:35:02.749Z,8.8
2017-02-15T21:40:02.731Z,8.3
2017-02-15T21:45:02.750Z,8.6
2017-02-15T21:50:02.762Z,8.6
2017-02-15T21:55:02.766Z,9.0
2017-02-15T22:00:02.871Z,8.8
2017-02-15T22:05:02.752Z,8.6
2017-02-15T22:10:02.722Z,9.3
2017-02-15T22:15:02.552Z,9.6
2017-02-15T22:20:02.712Z,9.8
2017-02-15T22:25:02.610Z,9.8
2017-02-15T22:30:02.613Z,9.8
2017-02-15T22:35:02.453Z,10.0
2017-02-15T22:40:02.480Z,10.0
2017-02-15T22:45:03.286Z,10.0
2017-02-15T22:50:03.202Z,10.0
2017-02-15T22:55:03.347Z,9.8
2017-02-15T23:00:03.131Z,9.8
2017-02-15T23:05:02.941Z,10.0
2017-02-15T23:10:02.924Z,10.0
2017-02-15T23:15:02.893Z,10.1
2017-02-15T23:20:03.081Z,10.1
2017-02-15T23:25:02.859Z,9.8
2017-02-15T23:30:02.968Z,9.6
2017-02-15T23:35:02.840Z,9.8
2017-02-15T23:40:02.814Z,9.8
2017-02-15T23:45:02.700Z,9.8
2017-02-15T23:50:02.453Z,9.8
2017-02-15T23:55:02.641Z,9.6
